sensor_id;sensor_type;location;lat;lon;timestamp;P1;durP1;ratioP1;P2;durP2;ratioP2
14722;SDS011;7452;55.594;12.986;2022-09-17T00:01:29;2.77;;;1.30;;
14722;SDS011;7452;55.594;12.986;2022-09-17T00:03:58;2.43;;;1.20;;
14722;SDS011;7452;55.594;12.986;2022-09-17T00:06:28;3.67;;;1.10;;
14722;SDS011;7452;55.594;12.986;2022-09-17T00:08:57;2.07;;;1.33;;
14722;SDS011;7452;55.594;12.986;2022-09-17T00:11:26;5.37;;;1.23;;
14722;SDS011;7452;55.594;12.986;2022-09-17T00:13:56;3.77;;;1.20;;
14722;SDS011;7452;55.594;12.986;2022-09-17T00:16:26;2.87;;;1.20;;
14722;SDS011;7452;55.594;12.986;2022-09-17T00:18:56;1.67;;;1.00;;
14722;SDS011;7452;55.594;12.986;2022-09-17T00:21:26;4.30;;;1.60;;
14722;SDS011;7452;55.594;12.986;2022-09-17T00:23:54;2.60;;;1.30;;
14722;SDS011;7452;55.594;12.986;2022-09-17T00:26:23;3.43;;;1.30;;
14722;SDS011;7452;55.594;12.986;2022-09-17T00:28:56;2.70;;;1.10;;
14722;SDS011;7452;55.594;12.986;2022-09-17T00:31:25;2.97;;;1.30;;
14722;SDS011;7452;55.594;12.986;2022-09-17T00:33:53;3.07;;;1.23;;
14722;SDS011;7452;55.594;12.986;2022-09-17T00:36:34;4.10;;;1.10;;
14722;SDS011;7452;55.594;12.986;2022-09-17T00:39:03;3.80;;;1.27;;
14722;SDS011;7452;55.594;12.986;2022-09-17T00:41:33;2.17;;;1.30;;
14722;SDS011;7452;55.594;12.986;2022-09-17T00:44:36;4.37;;;1.40;;
14722;SDS011;7452;55.594;12.986;2022-09-17T00:47:11;2.27;;;1.40;;
14722;SDS011;7452;55.594;12.986;2022-09-17T00:49:42;3.80;;;1.03;;
14722;SDS011;7452;55.594;12.986;2022-09-17T00:52:11;1.73;;;1.30;;
14722;SDS011;7452;55.594;12.986;2022-09-17T00:54:41;2.90;;;1.00;;
14722;SDS011;7452;55.594;12.986;2022-09-17T00:57:13;4.17;;;1.40;;
14722;SDS011;7452;55.594;12.986;2022-09-17T00:59:40;4.13;;;1.30;;
14722;SDS011;7452;55.594;12.986;2022-09-17T01:02:10;4.07;;;1.43;;
14722;SDS011;7452;55.594;12.986;2022-09-17T01:04:38;3.60;;;1.27;;
14722;SDS011;7452;55.594;12.986;2022-09-17T01:07:07;4.00;;;1.10;;
14722;SDS011;7452;55.594;12.986;2022-09-17T01:09:40;5.83;;;1.27;;
14722;SDS011;7452;55.594;12.986;2022-09-17T01:12:20;5.70;;;1.67;;
14722;SDS011;7452;55.594;12.986;2022-09-17T01:15:26;3.10;;;1.30;;
14722;SDS011;7452;55.594;12.986;2022-09-17T01:18:05;2.17;;;1.30;;
14722;SDS011;7452;55.594;12.986;2022-09-17T01:33:36;3.97;;;1.30;;
14722;SDS011;7452;55.594;12.986;2022-09-17T01:36:13;2.50;;;1.00;;
14722;SDS011;7452;55.594;12.986;2022-09-17T01:38:51;3.03;;;1.07;;
14722;SDS011;7452;55.594;12.986;2022-09-17T01:41:27;3.60;;;1.30;;
14722;SDS011;7452;55.594;12.986;2022-09-17T01:44:00;4.27;;;1.20;;
14722;SDS011;7452;55.594;12.986;2022-09-17T01:46:33;4.77;;;1.30;;
14722;SDS011;7452;55.594;12.986;2022-09-17T01:49:06;2.57;;;1.00;;
14722;SDS011;7452;55.594;12.986;2022-09-17T01:51:38;3.50;;;1.00;;
14722;SDS011;7452;55.594;12.986;2022-09-17T01:54:12;1.57;;;1.00;;
14722;SDS011;7452;55.594;12.986;2022-09-17T01:56:45;5.17;;;1.20;;
14722;SDS011;7452;55.594;12.986;2022-09-17T01:59:17;3.00;;;1.00;;
14722;SDS011;7452;55.594;12.986;2022-09-17T02:01:49;3.80;;;1.10;;
14722;SDS011;7452;55.594;12.986;2022-09-17T02:04:22;2.60;;;0.97;;
14722;SDS011;7452;55.594;12.986;2022-09-17T02:06:54;3.00;;;1.10;;
14722;SDS011;7452;55.594;12.986;2022-09-17T02:09:26;1.23;;;1.00;;
14722;SDS011;7452;55.594;12.986;2022-09-17T02:11:59;4.37;;;1.20;;
14722;SDS011;7452;55.594;12.986;2022-09-17T02:14:33;6.53;;;0.90;;
14722;SDS011;7452;55.594;12.986;2022-09-17T02:17:09;3.03;;;0.97;;
14722;SDS011;7452;55.594;12.986;2022-09-17T02:19:43;5.27;;;0.90;;
14722;SDS011;7452;55.594;12.986;2022-09-17T02:22:14;4.20;;;1.20;;
14722;SDS011;7452;55.594;12.986;2022-09-17T02:24:49;3.93;;;1.10;;
14722;SDS011;7452;55.594;12.986;2022-09-17T02:27:27;4.50;;;1.30;;
14722;SDS011;7452;55.594;12.986;2022-09-17T02:30:06;3.70;;;1.30;;
14722;SDS011;7452;55.594;12.986;2022-09-17T02:32:37;6.70;;;1.50;;
14722;SDS011;7452;55.594;12.986;2022-09-17T02:35:10;3.87;;;1.20;;
14722;SDS011;7452;55.594;12.986;2022-09-17T02:37:39;2.37;;;0.90;;
14722;SDS011;7452;55.594;12.986;2022-09-17T02:40:07;2.67;;;1.20;;
14722;SDS011;7452;55.594;12.986;2022-09-17T02:42:42;2.70;;;1.23;;
14722;SDS011;7452;55.594;12.986;2022-09-17T02:45:23;4.53;;;1.10;;
14722;SDS011;7452;55.594;12.986;2022-09-17T02:48:03;3.77;;;1.23;;
14722;SDS011;7452;55.594;12.986;2022-09-17T02:50:44;4.30;;;1.10;;
14722;SDS011;7452;55.594;12.986;2022-09-17T02:53:34;2.43;;;1.03;;
14722;SDS011;7452;55.594;12.986;2022-09-17T02:56:10;3.63;;;1.23;;
14722;SDS011;7452;55.594;12.986;2022-09-17T02:58:45;3.00;;;1.10;;
14722;SDS011;7452;55.594;12.986;2022-09-17T03:01:21;1.80;;;1.10;;
14722;SDS011;7452;55.594;12.986;2022-09-17T03:03:54;2.87;;;1.20;;
14722;SDS011;7452;55.594;12.986;2022-09-17T03:06:25;4.67;;;1.53;;
14722;SDS011;7452;55.594;12.986;2022-09-17T03:08:53;6.73;;;1.63;;
14722;SDS011;7452;55.594;12.986;2022-09-17T03:11:21;6.77;;;1.63;;
14722;SDS011;7452;55.594;12.986;2022-09-17T03:13:52;5.13;;;1.40;;
14722;SDS011;7452;55.594;12.986;2022-09-17T03:16:19;6.57;;;1.80;;
14722;SDS011;7452;55.594;12.986;2022-09-17T03:18:47;5.03;;;1.43;;
14722;SDS011;7452;55.594;12.986;2022-09-17T03:21:14;3.80;;;1.63;;
14722;SDS011;7452;55.594;12.986;2022-09-17T03:23:43;6.27;;;1.40;;
14722;SDS011;7452;55.594;12.986;2022-09-17T03:26:12;4.33;;;1.50;;
14722;SDS011;7452;55.594;12.986;2022-09-17T03:28:42;6.53;;;1.73;;
14722;SDS011;7452;55.594;12.986;2022-09-17T03:31:09;5.10;;;1.60;;
14722;SDS011;7452;55.594;12.986;2022-09-17T03:33:37;5.87;;;1.73;;
14722;SDS011;7452;55.594;12.986;2022-09-17T03:36:04;6.83;;;1.40;;
14722;SDS011;7452;55.594;12.986;2022-09-17T03:38:36;3.77;;;1.33;;
14722;SDS011;7452;55.594;12.986;2022-09-17T03:41:15;4.43;;;1.30;;
14722;SDS011;7452;55.594;12.986;2022-09-17T03:43:42;5.83;;;1.57;;
14722;SDS011;7452;55.594;12.986;2022-09-17T03:46:09;3.80;;;1.47;;
14722;SDS011;7452;55.594;12.986;2022-09-17T03:48:37;5.33;;;1.30;;
14722;SDS011;7452;55.594;12.986;2022-09-17T03:51:08;2.47;;;0.90;;
14722;SDS011;7452;55.594;12.986;2022-09-17T03:53:36;2.43;;;1.00;;
14722;SDS011;7452;55.594;12.986;2022-09-17T03:56:04;4.10;;;1.10;;
14722;SDS011;7452;55.594;12.986;2022-09-17T03:58:34;3.43;;;1.13;;
14722;SDS011;7452;55.594;12.986;2022-09-17T04:01:01;6.03;;;0.90;;
14722;SDS011;7452;55.594;12.986;2022-09-17T04:03:28;2.27;;;0.70;;
14722;SDS011;7452;55.594;12.986;2022-09-17T04:05:56;2.67;;;0.50;;
14722;SDS011;7452;55.594;12.986;2022-09-17T04:08:24;4.50;;;0.60;;
14722;SDS011;7452;55.594;12.986;2022-09-17T04:10:51;5.23;;;1.10;;
14722;SDS011;7452;55.594;12.986;2022-09-17T04:13:21;4.83;;;1.80;;
14722;SDS011;7452;55.594;12.986;2022-09-17T04:15:49;2.27;;;0.80;;
14722;SDS011;7452;55.594;12.986;2022-09-17T04:18:16;4.20;;;0.87;;
14722;SDS011;7452;55.594;12.986;2022-09-17T04:20:43;5.80;;;0.70;;
14722;SDS011;7452;55.594;12.986;2022-09-17T04:23:10;1.80;;;0.80;;
14722;SDS011;7452;55.594;12.986;2022-09-17T04:25:40;2.43;;;0.80;;
14722;SDS011;7452;55.594;12.986;2022-09-17T04:28:08;3.70;;;0.80;;
14722;SDS011;7452;55.594;12.986;2022-09-17T04:30:37;3.50;;;1.30;;
14722;SDS011;7452;55.594;12.986;2022-09-17T04:33:05;4.57;;;1.00;;
14722;SDS011;7452;55.594;12.986;2022-09-17T04:35:34;3.47;;;1.00;;
14722;SDS011;7452;55.594;12.986;2022-09-17T04:38:02;6.20;;;1.20;;
14722;SDS011;7452;55.594;12.986;2022-09-17T04:40:29;3.43;;;1.00;;
14722;SDS011;7452;55.594;12.986;2022-09-17T04:42:58;6.57;;;1.00;;
14722;SDS011;7452;55.594;12.986;2022-09-17T04:45:28;2.40;;;0.87;;
14722;SDS011;7452;55.594;12.986;2022-09-17T04:47:59;3.33;;;1.37;;
14722;SDS011;7452;55.594;12.986;2022-09-17T04:50:27;1.63;;;0.90;;
14722;SDS011;7452;55.594;12.986;2022-09-17T04:52:56;1.13;;;0.70;;
14722;SDS011;7452;55.594;12.986;2022-09-17T04:55:32;5.67;;;1.03;;
14722;SDS011;7452;55.594;12.986;2022-09-17T04:58:00;3.10;;;0.80;;
14722;SDS011;7452;55.594;12.986;2022-09-17T05:00:28;2.37;;;0.70;;
14722;SDS011;7452;55.594;12.986;2022-09-17T05:03:01;2.47;;;0.80;;
14722;SDS011;7452;55.594;12.986;2022-09-17T05:05:31;2.47;;;0.90;;
14722;SDS011;7452;55.594;12.986;2022-09-17T05:08:00;1.80;;;0.70;;
14722;SDS011;7452;55.594;12.986;2022-09-17T05:10:28;3.53;;;0.80;;
14722;SDS011;7452;55.594;12.986;2022-09-17T05:12:55;5.73;;;0.73;;
14722;SDS011;7452;55.594;12.986;2022-09-17T05:15:23;5.20;;;0.90;;
14722;SDS011;7452;55.594;12.986;2022-09-17T05:17:52;4.27;;;0.80;;
14722;SDS011;7452;55.594;12.986;2022-09-17T05:20:21;1.77;;;0.57;;
14722;SDS011;7452;55.594;12.986;2022-09-17T05:22:49;2.23;;;0.90;;
14722;SDS011;7452;55.594;12.986;2022-09-17T05:25:18;3.23;;;0.80;;
14722;SDS011;7452;55.594;12.986;2022-09-17T05:27:48;2.97;;;0.67;;
14722;SDS011;7452;55.594;12.986;2022-09-17T05:30:18;3.63;;;1.07;;
14722;SDS011;7452;55.594;12.986;2022-09-17T05:32:46;4.37;;;0.90;;
14722;SDS011;7452;55.594;12.986;2022-09-17T05:35:14;2.27;;;0.93;;
14722;SDS011;7452;55.594;12.986;2022-09-17T05:40:29;2.40;;;0.77;;
14722;SDS011;7452;55.594;12.986;2022-09-17T05:42:59;3.03;;;0.87;;
14722;SDS011;7452;55.594;12.986;2022-09-17T05:45:29;4.97;;;1.00;;
14722;SDS011;7452;55.594;12.986;2022-09-17T05:47:59;4.90;;;0.90;;
14722;SDS011;7452;55.594;12.986;2022-09-17T05:50:41;1.43;;;0.80;;
14722;SDS011;7452;55.594;12.986;2022-09-17T05:53:13;3.87;;;1.33;;
14722;SDS011;7452;55.594;12.986;2022-09-17T05:55:48;2.93;;;0.93;;
14722;SDS011;7452;55.594;12.986;2022-09-17T05:58:17;3.33;;;0.90;;
14722;SDS011;7452;55.594;12.986;2022-09-17T06:00:48;3.27;;;1.00;;
14722;SDS011;7452;55.594;12.986;2022-09-17T06:03:17;3.33;;;1.17;;
14722;SDS011;7452;55.594;12.986;2022-09-17T06:05:51;8.20;;;1.53;;
14722;SDS011;7452;55.594;12.986;2022-09-17T06:08:22;1.53;;;0.90;;
14722;SDS011;7452;55.594;12.986;2022-09-17T06:10:52;2.20;;;0.87;;
14722;SDS011;7452;55.594;12.986;2022-09-17T06:13:21;5.07;;;1.20;;
14722;SDS011;7452;55.594;12.986;2022-09-17T06:15:49;3.33;;;1.07;;
14722;SDS011;7452;55.594;12.986;2022-09-17T06:18:18;4.60;;;1.43;;
14722;SDS011;7452;55.594;12.986;2022-09-17T06:20:52;2.17;;;0.97;;
14722;SDS011;7452;55.594;12.986;2022-09-17T06:23:26;1.47;;;0.97;;
14722;SDS011;7452;55.594;12.986;2022-09-17T06:25:59;3.87;;;1.20;;
14722;SDS011;7452;55.594;12.986;2022-09-17T06:28:37;2.83;;;0.80;;
14722;SDS011;7452;55.594;12.986;2022-09-17T06:31:07;2.43;;;0.73;;
14722;SDS011;7452;55.594;12.986;2022-09-17T06:33:39;2.27;;;0.60;;
14722;SDS011;7452;55.594;12.986;2022-09-17T06:36:07;4.20;;;0.90;;
14722;SDS011;7452;55.594;12.986;2022-09-17T06:38:44;3.87;;;1.00;;
14722;SDS011;7452;55.594;12.986;2022-09-17T06:41:21;4.70;;;0.93;;
14722;SDS011;7452;55.594;12.986;2022-09-17T06:43:53;2.47;;;0.80;;
14722;SDS011;7452;55.594;12.986;2022-09-17T06:46:21;4.10;;;0.90;;
14722;SDS011;7452;55.594;12.986;2022-09-17T06:48:51;3.20;;;0.80;;
14722;SDS011;7452;55.594;12.986;2022-09-17T06:51:19;3.40;;;1.23;;
14722;SDS011;7452;55.594;12.986;2022-09-17T06:53:57;1.37;;;0.70;;
14722;SDS011;7452;55.594;12.986;2022-09-17T06:56:26;2.43;;;0.70;;
14722;SDS011;7452;55.594;12.986;2022-09-17T06:58:53;1.83;;;0.57;;
14722;SDS011;7452;55.594;12.986;2022-09-17T07:01:21;2.83;;;0.57;;
14722;SDS011;7452;55.594;12.986;2022-09-17T07:03:49;3.40;;;0.80;;
14722;SDS011;7452;55.594;12.986;2022-09-17T07:06:26;3.13;;;0.77;;
14722;SDS011;7452;55.594;12.986;2022-09-17T07:08:54;1.43;;;0.50;;
14722;SDS011;7452;55.594;12.986;2022-09-17T07:11:27;1.50;;;0.50;;
14722;SDS011;7452;55.594;12.986;2022-09-17T07:13:57;1.67;;;0.77;;
14722;SDS011;7452;55.594;12.986;2022-09-17T07:16:27;2.50;;;1.10;;
14722;SDS011;7452;55.594;12.986;2022-09-17T07:19:00;1.43;;;0.60;;
14722;SDS011;7452;55.594;12.986;2022-09-17T07:21:29;1.70;;;0.60;;
14722;SDS011;7452;55.594;12.986;2022-09-17T07:23:57;2.40;;;0.53;;
14722;SDS011;7452;55.594;12.986;2022-09-17T07:26:28;1.73;;;0.70;;
14722;SDS011;7452;55.594;12.986;2022-09-17T07:28:56;3.83;;;2.30;;
14722;SDS011;7452;55.594;12.986;2022-09-17T07:31:25;2.90;;;1.50;;
14722;SDS011;7452;55.594;12.986;2022-09-17T07:33:59;3.07;;;0.60;;
14722;SDS011;7452;55.594;12.986;2022-09-17T07:36:28;2.70;;;0.70;;
14722;SDS011;7452;55.594;12.986;2022-09-17T07:39:06;2.63;;;0.57;;
14722;SDS011;7452;55.594;12.986;2022-09-17T07:41:39;1.70;;;0.67;;
14722;SDS011;7452;55.594;12.986;2022-09-17T07:44:14;1.03;;;0.30;;
14722;SDS011;7452;55.594;12.986;2022-09-17T07:46:41;0.97;;;0.50;;
14722;SDS011;7452;55.594;12.986;2022-09-17T07:49:12;1.13;;;0.40;;
14722;SDS011;7452;55.594;12.986;2022-09-17T07:51:41;2.03;;;0.50;;
14722;SDS011;7452;55.594;12.986;2022-09-17T07:54:08;0.70;;;0.40;;
14722;SDS011;7452;55.594;12.986;2022-09-17T07:56:44;1.20;;;0.57;;
14722;SDS011;7452;55.594;12.986;2022-09-17T07:59:14;1.07;;;0.30;;
14722;SDS011;7452;55.594;12.986;2022-09-17T08:01:46;2.73;;;0.53;;
14722;SDS011;7452;55.594;12.986;2022-09-17T08:04:22;1.07;;;0.30;;
14722;SDS011;7452;55.594;12.986;2022-09-17T08:06:49;2.70;;;0.40;;
14722;SDS011;7452;55.594;12.986;2022-09-17T08:09:19;0.60;;;0.40;;
14722;SDS011;7452;55.594;12.986;2022-09-17T08:11:53;2.00;;;0.67;;
14722;SDS011;7452;55.594;12.986;2022-09-17T08:14:24;0.97;;;0.23;;
14722;SDS011;7452;55.594;12.986;2022-09-17T08:16:51;0.70;;;0.50;;
14722;SDS011;7452;55.594;12.986;2022-09-17T08:19:21;1.17;;;0.40;;
14722;SDS011;7452;55.594;12.986;2022-09-17T08:22:04;2.03;;;0.43;;
14722;SDS011;7452;55.594;12.986;2022-09-17T08:24:33;1.20;;;0.47;;
14722;SDS011;7452;55.594;12.986;2022-09-17T08:27:05;2.20;;;0.30;;
14722;SDS011;7452;55.594;12.986;2022-09-17T08:29:35;2.23;;;0.40;;
14722;SDS011;7452;55.594;12.986;2022-09-17T08:32:03;2.23;;;0.40;;
14722;SDS011;7452;55.594;12.986;2022-09-17T08:34:39;3.60;;;0.50;;
14722;SDS011;7452;55.594;12.986;2022-09-17T08:37:07;1.20;;;0.37;;
14722;SDS011;7452;55.594;12.986;2022-09-17T08:39:35;1.73;;;0.30;;
14722;SDS011;7452;55.594;12.986;2022-09-17T08:42:08;2.10;;;0.43;;
14722;SDS011;7452;55.594;12.986;2022-09-17T08:44:43;1.23;;;0.30;;
14722;SDS011;7452;55.594;12.986;2022-09-17T08:47:24;2.30;;;0.30;;
14722;SDS011;7452;55.594;12.986;2022-09-17T08:49:56;1.83;;;0.40;;
14722;SDS011;7452;55.594;12.986;2022-09-17T08:55:17;1.70;;;0.47;;
14722;SDS011;7452;55.594;12.986;2022-09-17T09:01:04;0.70;;;0.37;;
14722;SDS011;7452;55.594;12.986;2022-09-17T09:03:53;1.70;;;0.40;;
14722;SDS011;7452;55.594;12.986;2022-09-17T09:06:35;1.90;;;0.40;;
14722;SDS011;7452;55.594;12.986;2022-09-17T09:09:15;2.17;;;0.30;;
14722;SDS011;7452;55.594;12.986;2022-09-17T09:11:53;0.97;;;0.43;;
14722;SDS011;7452;55.594;12.986;2022-09-17T09:14:31;0.70;;;0.40;;
14722;SDS011;7452;55.594;12.986;2022-09-17T09:17:06;0.43;;;0.37;;
14722;SDS011;7452;55.594;12.986;2022-09-17T09:19:44;0.90;;;0.40;;
14722;SDS011;7452;55.594;12.986;2022-09-17T09:22:27;0.93;;;0.30;;
14722;SDS011;7452;55.594;12.986;2022-09-17T09:25:06;1.57;;;0.50;;
14722;SDS011;7452;55.594;12.986;2022-09-17T09:28:04;1.77;;;0.40;;
14722;SDS011;7452;55.594;12.986;2022-09-17T09:30:45;2.80;;;0.30;;
14722;SDS011;7452;55.594;12.986;2022-09-17T09:33:24;0.90;;;0.40;;
14722;SDS011;7452;55.594;12.986;2022-09-17T09:35:58;0.60;;;0.43;;
14722;SDS011;7452;55.594;12.986;2022-09-17T09:38:29;1.90;;;0.60;;
14722;SDS011;7452;55.594;12.986;2022-09-17T09:41:01;2.30;;;0.40;;
14722;SDS011;7452;55.594;12.986;2022-09-17T09:43:38;2.10;;;0.70;;
14722;SDS011;7452;55.594;12.986;2022-09-17T09:46:26;1.37;;;0.40;;
14722;SDS011;7452;55.594;12.986;2022-09-17T09:49:11;1.33;;;0.60;;
14722;SDS011;7452;55.594;12.986;2022-09-17T09:51:53;1.53;;;0.80;;
14722;SDS011;7452;55.594;12.986;2022-09-17T09:54:37;2.20;;;0.40;;
14722;SDS011;7452;55.594;12.986;2022-09-17T09:57:14;1.07;;;0.50;;
14722;SDS011;7452;55.594;12.986;2022-09-17T09:59:46;1.23;;;0.50;;
14722;SDS011;7452;55.594;12.986;2022-09-17T10:02:26;2.30;;;0.40;;
14722;SDS011;7452;55.594;12.986;2022-09-17T10:04:55;0.57;;;0.50;;
14722;SDS011;7452;55.594;12.986;2022-09-17T10:07:41;1.20;;;0.30;;
14722;SDS011;7452;55.594;12.986;2022-09-17T10:10:10;1.33;;;0.53;;
14722;SDS011;7452;55.594;12.986;2022-09-17T10:12:38;0.90;;;0.40;;
14722;SDS011;7452;55.594;12.986;2022-09-17T10:15:21;1.77;;;0.70;;
14722;SDS011;7452;55.594;12.986;2022-09-17T10:20:55;1.20;;;0.47;;
14722;SDS011;7452;55.594;12.986;2022-09-17T10:23:25;0.83;;;0.30;;
14722;SDS011;7452;55.594;12.986;2022-09-17T10:26:18;1.60;;;0.50;;
14722;SDS011;7452;55.594;12.986;2022-09-17T10:28:50;0.60;;;0.40;;
14722;SDS011;7452;55.594;12.986;2022-09-17T10:31:23;0.73;;;0.40;;
14722;SDS011;7452;55.594;12.986;2022-09-17T10:36:44;2.13;;;0.43;;
14722;SDS011;7452;55.594;12.986;2022-09-17T10:39:28;1.03;;;0.40;;
14722;SDS011;7452;55.594;12.986;2022-09-17T10:42:01;0.90;;;0.37;;
14722;SDS011;7452;55.594;12.986;2022-09-17T10:44:49;1.13;;;0.33;;
14722;SDS011;7452;55.594;12.986;2022-09-17T10:47:19;1.20;;;0.40;;
14722;SDS011;7452;55.594;12.986;2022-09-17T10:49:55;1.25;;;0.40;;
14722;SDS011;7452;55.594;12.986;2022-09-17T10:52:32;0.88;;;0.30;;
14722;SDS011;7452;55.594;12.986;2022-09-17T10:55:23;1.05;;;0.40;;
14722;SDS011;7452;55.594;12.986;2022-09-17T10:57:57;0.85;;;0.40;;
14722;SDS011;7452;55.594;12.986;2022-09-17T11:00:32;1.48;;;0.40;;
14722;SDS011;7452;55.594;12.986;2022-09-17T11:03:17;0.35;;;0.30;;
14722;SDS011;7452;55.594;12.986;2022-09-17T11:06:18;0.73;;;0.40;;
14722;SDS011;7452;55.594;12.986;2022-09-17T11:09:04;0.82;;;0.30;;
14722;SDS011;7452;55.594;12.986;2022-09-17T11:11:56;1.10;;;0.47;;
14722;SDS011;7452;55.594;12.986;2022-09-17T11:14:42;2.35;;;0.40;;
14722;SDS011;7452;55.594;12.986;2022-09-17T11:17:29;1.20;;;0.40;;
14722;SDS011;7452;55.594;12.986;2022-09-17T11:20:10;1.85;;;0.50;;
14722;SDS011;7452;55.594;12.986;2022-09-17T11:22:56;1.40;;;0.50;;
14722;SDS011;7452;55.594;12.986;2022-09-17T11:25:38;1.10;;;0.45;;
14722;SDS011;7452;55.594;12.986;2022-09-17T11:28:19;2.08;;;0.28;;
14722;SDS011;7452;55.594;12.986;2022-09-17T11:31:01;1.02;;;0.40;;
14722;SDS011;7452;55.594;12.986;2022-09-17T11:33:47;1.95;;;0.98;;
14722;SDS011;7452;55.594;12.986;2022-09-17T11:36:42;0.90;;;0.52;;
14722;SDS011;7452;55.594;12.986;2022-09-17T11:39:21;0.38;;;0.25;;
14722;SDS011;7452;55.594;12.986;2022-09-17T11:41:53;0.88;;;0.40;;
14722;SDS011;7452;55.594;12.986;2022-09-17T11:44:26;1.48;;;0.40;;
14722;SDS011;7452;55.594;12.986;2022-09-17T11:46:58;1.48;;;0.30;;
14722;SDS011;7452;55.594;12.986;2022-09-17T11:49:36;0.98;;;0.40;;
14722;SDS011;7452;55.594;12.986;2022-09-17T11:52:12;0.88;;;0.30;;
14722;SDS011;7452;55.594;12.986;2022-09-17T11:54:54;2.47;;;0.90;;
14722;SDS011;7452;55.594;12.986;2022-09-17T11:57:24;1.10;;;0.40;;
14722;SDS011;7452;55.594;12.986;2022-09-17T12:00:03;0.80;;;0.30;;
14722;SDS011;7452;55.594;12.986;2022-09-17T12:02:44;3.08;;;0.43;;
14722;SDS011;7452;55.594;12.986;2022-09-17T12:05:19;0.57;;;0.38;;
14722;SDS011;7452;55.594;12.986;2022-09-17T12:07:53;1.65;;;0.40;;
14722;SDS011;7452;55.594;12.986;2022-09-17T12:13:18;1.95;;;0.40;;
14722;SDS011;7452;55.594;12.986;2022-09-17T12:15:56;1.23;;;0.40;;
14722;SDS011;7452;55.594;12.986;2022-09-17T12:18:43;0.82;;;0.30;;
14722;SDS011;7452;55.594;12.986;2022-09-17T12:21:17;1.08;;;0.40;;
14722;SDS011;7452;55.594;12.986;2022-09-17T12:23:52;0.90;;;0.40;;
14722;SDS011;7452;55.594;12.986;2022-09-17T12:29:46;0.65;;;0.43;;
14722;SDS011;7452;55.594;12.986;2022-09-17T12:35:53;1.75;;;0.50;;
14722;SDS011;7452;55.594;12.986;2022-09-17T12:39:00;1.02;;;0.35;;
14722;SDS011;7452;55.594;12.986;2022-09-17T12:41:42;1.50;;;0.95;;
14722;SDS011;7452;55.594;12.986;2022-09-17T12:50:30;0.90;;;0.20;;
14722;SDS011;7452;55.594;12.986;2022-09-17T12:53:19;1.60;;;0.40;;
14722;SDS011;7452;55.594;12.986;2022-09-17T12:56:16;2.17;;;0.32;;
14722;SDS011;7452;55.594;12.986;2022-09-17T12:59:01;1.85;;;0.30;;
14722;SDS011;7452;55.594;12.986;2022-09-17T13:01:37;0.70;;;0.40;;
14722;SDS011;7452;55.594;12.986;2022-09-17T13:04:21;1.60;;;0.40;;
14722;SDS011;7452;55.594;12.986;2022-09-17T13:07:35;0.93;;;0.40;;
14722;SDS011;7452;55.594;12.986;2022-09-17T13:10:25;1.00;;;0.35;;
14722;SDS011;7452;55.594;12.986;2022-09-17T13:13:41;1.20;;;0.43;;
14722;SDS011;7452;55.594;12.986;2022-09-17T13:16:20;1.83;;;0.30;;
14722;SDS011;7452;55.594;12.986;2022-09-17T13:18:54;1.77;;;0.80;;
14722;SDS011;7452;55.594;12.986;2022-09-17T13:21:36;1.50;;;0.75;;
14722;SDS011;7452;55.594;12.986;2022-09-17T13:24:13;2.33;;;1.00;;
14722;SDS011;7452;55.594;12.986;2022-09-17T13:26:55;1.15;;;0.50;;
14722;SDS011;7452;55.594;12.986;2022-09-17T13:29:56;4.28;;;0.70;;
14722;SDS011;7452;55.594;12.986;2022-09-17T13:35:49;2.05;;;0.40;;
14722;SDS011;7452;55.594;12.986;2022-09-17T13:38:42;0.55;;;0.32;;
14722;SDS011;7452;55.594;12.986;2022-09-17T13:41:18;0.82;;;0.50;;
14722;SDS011;7452;55.594;12.986;2022-09-17T13:43:56;2.72;;;0.40;;
14722;SDS011;7452;55.594;12.986;2022-09-17T13:46:28;2.35;;;0.30;;
14722;SDS011;7452;55.594;12.986;2022-09-17T13:49:02;0.60;;;0.30;;
14722;SDS011;7452;55.594;12.986;2022-09-17T13:51:47;2.20;;;0.40;;
14722;SDS011;7452;55.594;12.986;2022-09-17T13:54:40;1.33;;;0.43;;
14722;SDS011;7452;55.594;12.986;2022-09-17T13:57:30;2.67;;;0.50;;
14722;SDS011;7452;55.594;12.986;2022-09-17T14:15:54;3.22;;;0.70;;
14722;SDS011;7452;55.594;12.986;2022-09-17T14:18:32;2.22;;;0.40;;
14722;SDS011;7452;55.594;12.986;2022-09-17T14:21:12;2.88;;;0.47;;
14722;SDS011;7452;55.594;12.986;2022-09-17T14:23:48;1.98;;;0.43;;
14722;SDS011;7452;55.594;12.986;2022-09-17T14:26:51;2.50;;;0.50;;
14722;SDS011;7452;55.594;12.986;2022-09-17T14:32:35;1.30;;;0.30;;
14722;SDS011;7452;55.594;12.986;2022-09-17T14:35:16;2.40;;;0.50;;
14722;SDS011;7452;55.594;12.986;2022-09-17T14:37:51;1.27;;;0.30;;
14722;SDS011;7452;55.594;12.986;2022-09-17T14:40:24;2.70;;;0.50;;
14722;SDS011;7452;55.594;12.986;2022-09-17T14:45:50;2.63;;;0.60;;
14722;SDS011;7452;55.594;12.986;2022-09-17T14:48:29;1.52;;;0.50;;
14722;SDS011;7452;55.594;12.986;2022-09-17T14:54:06;3.15;;;0.77;;
14722;SDS011;7452;55.594;12.986;2022-09-17T14:56:57;2.65;;;0.38;;
14722;SDS011;7452;55.594;12.986;2022-09-17T15:05:25;3.05;;;0.60;;
14722;SDS011;7452;55.594;12.986;2022-09-17T15:08:14;2.00;;;0.70;;
14722;SDS011;7452;55.594;12.986;2022-09-17T15:10:46;1.58;;;0.60;;
14722;SDS011;7452;55.594;12.986;2022-09-17T15:13:17;2.30;;;0.50;;
14722;SDS011;7452;55.594;12.986;2022-09-17T15:15:59;1.08;;;0.60;;
14722;SDS011;7452;55.594;12.986;2022-09-17T15:18:35;1.70;;;0.57;;
14722;SDS011;7452;55.594;12.986;2022-09-17T15:21:12;0.98;;;0.40;;
14722;SDS011;7452;55.594;12.986;2022-09-17T15:23:45;1.42;;;0.63;;
14722;SDS011;7452;55.594;12.986;2022-09-17T15:26:16;2.42;;;0.50;;
14722;SDS011;7452;55.594;12.986;2022-09-17T15:28:48;0.98;;;0.60;;
14722;SDS011;7452;55.594;12.986;2022-09-17T15:31:18;1.52;;;0.55;;
14722;SDS011;7452;55.594;12.986;2022-09-17T15:33:45;3.15;;;1.00;;
14722;SDS011;7452;55.594;12.986;2022-09-17T15:36:16;1.42;;;0.80;;
14722;SDS011;7452;55.594;12.986;2022-09-17T15:38:47;3.78;;;0.90;;
14722;SDS011;7452;55.594;12.986;2022-09-17T15:41:21;2.85;;;0.70;;
14722;SDS011;7452;55.594;12.986;2022-09-17T15:44:06;2.38;;;0.50;;
14722;SDS011;7452;55.594;12.986;2022-09-17T15:46:41;1.58;;;0.40;;
14722;SDS011;7452;55.594;12.986;2022-09-17T15:49:28;1.55;;;0.60;;
14722;SDS011;7452;55.594;12.986;2022-09-17T15:54:48;1.52;;;0.50;;
14722;SDS011;7452;55.594;12.986;2022-09-17T15:57:15;1.50;;;0.50;;
14722;SDS011;7452;55.594;12.986;2022-09-17T15:59:43;1.73;;;0.40;;
14722;SDS011;7452;55.594;12.986;2022-09-17T16:02:23;2.15;;;0.52;;
14722;SDS011;7452;55.594;12.986;2022-09-17T16:05:02;2.85;;;0.63;;
14722;SDS011;7452;55.594;12.986;2022-09-17T16:08:05;1.42;;;0.43;;
14722;SDS011;7452;55.594;12.986;2022-09-17T16:10:48;1.20;;;0.52;;
14722;SDS011;7452;55.594;12.986;2022-09-17T16:13:16;1.03;;;0.50;;
14722;SDS011;7452;55.594;12.986;2022-09-17T16:15:44;2.27;;;1.83;;
14722;SDS011;7452;55.594;12.986;2022-09-17T16:18:14;1.83;;;0.70;;
14722;SDS011;7452;55.594;12.986;2022-09-17T16:20:41;1.93;;;0.67;;
14722;SDS011;7452;55.594;12.986;2022-09-17T16:23:08;2.83;;;0.73;;
14722;SDS011;7452;55.594;12.986;2022-09-17T16:25:36;2.67;;;0.70;;
14722;SDS011;7452;55.594;12.986;2022-09-17T16:28:11;1.27;;;0.70;;
14722;SDS011;7452;55.594;12.986;2022-09-17T16:30:41;5.80;;;3.37;;
14722;SDS011;7452;55.594;12.986;2022-09-17T16:33:12;2.40;;;1.20;;
14722;SDS011;7452;55.594;12.986;2022-09-17T16:35:41;4.63;;;3.00;;
14722;SDS011;7452;55.594;12.986;2022-09-17T16:38:09;3.77;;;0.83;;
14722;SDS011;7452;55.594;12.986;2022-09-17T16:40:38;2.73;;;0.50;;
14722;SDS011;7452;55.594;12.986;2022-09-17T16:43:11;2.90;;;0.63;;
14722;SDS011;7452;55.594;12.986;2022-09-17T16:45:38;2.33;;;0.50;;
14722;SDS011;7452;55.594;12.986;2022-09-17T16:48:08;2.33;;;0.60;;
14722;SDS011;7452;55.594;12.986;2022-09-17T16:50:45;3.53;;;0.70;;
14722;SDS011;7452;55.594;12.986;2022-09-17T16:53:13;1.90;;;0.50;;